DLH9920 CYMX-BIKF
Flight info
| Callsign | DLH9920 |
|---|---|
| Flight time | N/A |
| Altitude | 39000 |
| Route | CYMX9 TAMKO DCT MOFAT/M080F390 DCT SAVRY DCT 62N050W 63N040W 64N030W DCT GISTU DCT GIRUG GIRUG4N |
| Aircraft | CRJ9/M-SDFGIRWY/S |
Departure
| Time | 2026-05-07 10:55 |
|---|---|
| Airport | Montreal Mirabel International Airport (CYMX) |
Arrival
| Time | N/A |
|---|---|
| Airport | Keflavik International Airport (BIKF) |
| Time | Latitude | Longitude | Altitude | Speed | Heading |
|---|---|---|---|---|---|
| 2026-05-07 10:35 | 45.68457 | -74.02010 | 263 ft | 0 kts | 140° |
| 2026-05-07 10:47 | 45.68455 | -74.02008 | 263 ft | 1 kts | 140° |
| 2026-05-07 10:47 | 45.68444 | -74.01994 | 263 ft | 2 kts | 140° |
| 2026-05-07 10:48 | 45.68424 | -74.01937 | 263 ft | 8 kts | 106° |
| 2026-05-07 10:48 | 45.68386 | -74.01863 | 263 ft | 9 kts | 135° |
| 2026-05-07 10:48 | 45.68334 | -74.01790 | 262 ft | 11 kts | 136° |
| 2026-05-07 10:48 | 45.68276 | -74.01708 | 262 ft | 12 kts | 135° |
| 2026-05-07 10:49 | 45.68211 | -74.01617 | 262 ft | 13 kts | 135° |
| 2026-05-07 10:49 | 45.68179 | -74.01559 | 262 ft | 7 kts | 115° |
| 2026-05-07 10:49 | 45.68183 | -74.01465 | 261 ft | 11 kts | 49° |
| 2026-05-07 10:49 | 45.68255 | -74.01360 | 260 ft | 19 kts | 46° |
| 2026-05-07 10:50 | 45.68359 | -74.01211 | 259 ft | 21 kts | 45° |
| 2026-05-07 10:50 | 45.68473 | -74.01053 | 257 ft | 23 kts | 44° |
| 2026-05-07 10:50 | 45.68591 | -74.00884 | 255 ft | 25 kts | 46° |
| 2026-05-07 10:50 | 45.68716 | -74.00703 | 253 ft | 26 kts | 45° |
| 2026-05-07 10:51 | 45.68843 | -74.00523 | 250 ft | 25 kts | 45° |
| 2026-05-07 10:51 | 45.68970 | -74.00336 | 248 ft | 26 kts | 47° |
| 2026-05-07 10:51 | 45.69065 | -74.00178 | 246 ft | 18 kts | 57° |
| 2026-05-07 10:51 | 45.69132 | -74.00012 | 245 ft | 20 kts | 61° |
| 2026-05-07 10:52 | 45.69202 | -73.99830 | 243 ft | 21 kts | 61° |
| 2026-05-07 10:52 | 45.69280 | -73.99631 | 242 ft | 23 kts | 61° |
| 2026-05-07 10:52 | 45.69362 | -73.99420 | 240 ft | 25 kts | 61° |
| 2026-05-07 10:52 | 45.69445 | -73.99208 | 239 ft | 18 kts | 61° |
| 2026-05-07 10:53 | 45.69477 | -73.99120 | 239 ft | 5 kts | 68° |
| 2026-05-07 10:53 | 45.69479 | -73.99048 | 239 ft | 8 kts | 113° |
| 2026-05-07 10:53 | 45.69435 | -73.98985 | 239 ft | 9 kts | 138° |
| 2026-05-07 10:53 | 45.69384 | -73.98921 | 239 ft | 8 kts | 139° |
| 2026-05-07 10:54 | 45.69368 | -73.98901 | 239 ft | 3 kts | 139° |
| 2026-05-07 10:54 | 45.69347 | -73.98884 | 239 ft | 3 kts | 202° |
| 2026-05-07 10:54 | 45.69273 | -73.98996 | 238 ft | 45 kts | 225° |
| 2026-05-07 10:54 | 45.68847 | -73.99604 | 243 ft | 123 kts | 225° |
| 2026-05-07 10:55 | 45.68135 | -74.00599 | 568 ft | 151 kts | 226° |
| 2026-05-07 10:55 | 45.67389 | -74.01624 | 1369 ft | 151 kts | 226° |
| 2026-05-07 10:55 | 45.66597 | -74.02718 | 1895 ft | 171 kts | 228° |
| 2026-05-07 10:55 | 45.65676 | -74.04013 | 2233 ft | 205 kts | 227° |
| 2026-05-07 10:56 | 45.64596 | -74.05553 | 2759 ft | 232 kts | 228° |
| 2026-05-07 10:56 | 45.63409 | -74.07262 | 3423 ft | 249 kts | 229° |
| 2026-05-07 10:56 | 45.62212 | -74.08991 | 4363 ft | 251 kts | 228° |
| 2026-05-07 10:56 | 45.60975 | -74.10776 | 5296 ft | 253 kts | 228° |
| 2026-05-07 10:57 | 45.59683 | -74.12423 | 6177 ft | 258 kts | 214° |
| 2026-05-07 10:57 | 45.57908 | -74.12949 | 6968 ft | 273 kts | 178° |
| 2026-05-07 10:57 | 45.56049 | -74.12270 | 7895 ft | 277 kts | 168° |
| 2026-05-07 10:57 | 45.54210 | -74.11480 | 8715 ft | 280 kts | 168° |
| 2026-05-07 10:58 | 45.52361 | -74.10537 | 9466 ft | 290 kts | 154° |
| 2026-05-07 10:58 | 45.50946 | -74.08420 | 10212 ft | 305 kts | 120° |
| 2026-05-07 10:58 | 45.50502 | -74.05446 | 10978 ft | 314 kts | 89° |
| 2026-05-07 10:58 | 45.51133 | -74.02416 | 11383 ft | 330 kts | 58° |
| 2026-05-07 10:59 | 45.52736 | -74.00062 | 11831 ft | 338 kts | 34° |
| 2026-05-07 10:59 | 45.54793 | -73.98336 | 12293 ft | 345 kts | 17° |
| 2026-05-07 10:59 | 45.57112 | -73.97553 | 12738 ft | 351 kts | 5° |
| 2026-05-07 10:59 | 45.59590 | -73.97089 | 13205 ft | 360 kts | 2° |
| 2026-05-07 11:00 | 45.62106 | -73.96726 | 13652 ft | 370 kts | 1° |
| 2026-05-07 11:00 | 45.64697 | -73.96378 | 14191 ft | 377 kts | 1° |
| 2026-05-07 11:00 | 45.67294 | -73.96036 | 14752 ft | 382 kts | 1° |
| 2026-05-07 11:00 | 45.69970 | -73.95684 | 15289 ft | 388 kts | 1° |
| 2026-05-07 11:01 | 45.72668 | -73.95329 | 15874 ft | 394 kts | 1° |
| 2026-05-07 11:01 | 45.75425 | -73.94968 | 16525 ft | 397 kts | 1° |
| 2026-05-07 11:01 | 45.78217 | -73.94602 | 17100 ft | 403 kts | 1° |
| 2026-05-07 11:01 | 45.81005 | -73.94235 | 17708 ft | 406 kts | 0° |
| 2026-05-07 11:02 | 45.83821 | -73.93863 | 18229 ft | 411 kts | 1° |
| 2026-05-07 11:02 | 45.86685 | -73.93488 | 18796 ft | 414 kts | 1° |
| 2026-05-07 11:02 | 45.89579 | -73.93102 | 19263 ft | 419 kts | 1° |
| 2026-05-07 11:02 | 45.92484 | -73.92718 | 19711 ft | 423 kts | 0° |
| 2026-05-07 11:03 | 45.95421 | -73.92329 | 20219 ft | 426 kts | 360° |
| 2026-05-07 11:03 | 45.98406 | -73.91938 | 20628 ft | 430 kts | 0° |
| 2026-05-07 11:03 | 46.01382 | -73.91545 | 21058 ft | 433 kts | 0° |
| 2026-05-07 11:03 | 46.04393 | -73.91137 | 21497 ft | 437 kts | 1° |
| 2026-05-07 11:04 | 46.07434 | -73.90384 | 21890 ft | 444 kts | 6° |
| 2026-05-07 11:04 | 46.10460 | -73.89547 | 22315 ft | 446 kts | 6° |
| 2026-05-07 11:04 | 46.13517 | -73.88704 | 22658 ft | 451 kts | 6° |
| 2026-05-07 11:04 | 46.16591 | -73.87858 | 23092 ft | 453 kts | 6° |
| 2026-05-07 11:05 | 46.19714 | -73.87000 | 23416 ft | 458 kts | 6° |
| 2026-05-07 11:05 | 46.22877 | -73.86131 | 23830 ft | 460 kts | 6° |
| 2026-05-07 11:05 | 46.26004 | -73.85264 | 24180 ft | 464 kts | 6° |
| 2026-05-07 11:05 | 46.29179 | -73.84390 | 24547 ft | 466 kts | 6° |
| 2026-05-07 11:06 | 46.32357 | -73.83510 | 24962 ft | 468 kts | 6° |
| 2026-05-07 11:06 | 46.35562 | -73.82625 | 25303 ft | 471 kts | 6° |
| 2026-05-07 11:06 | 46.38808 | -73.81727 | 25682 ft | 474 kts | 6° |
| 2026-05-07 11:06 | 46.42075 | -73.80816 | 26043 ft | 476 kts | 6° |
| 2026-05-07 11:07 | 46.45334 | -73.79909 | 26410 ft | 478 kts | 6° |
| 2026-05-07 11:07 | 46.48614 | -73.79002 | 26721 ft | 481 kts | 6° |
| 2026-05-07 11:07 | 46.51907 | -73.78079 | 27130 ft | 481 kts | 6° |
| 2026-05-07 11:07 | 46.55233 | -73.77151 | 27510 ft | 481 kts | 6° |
| 2026-05-07 11:08 | 46.58524 | -73.76229 | 27907 ft | 481 kts | 6° |
| 2026-05-07 11:08 | 46.61779 | -73.75324 | 28256 ft | 480 kts | 7° |
| 2026-05-07 11:08 | 46.65079 | -73.74397 | 28659 ft | 478 kts | 6° |
| 2026-05-07 11:08 | 46.68316 | -73.73492 | 28959 ft | 480 kts | 6° |
| 2026-05-07 11:09 | 46.71621 | -73.72562 | 29292 ft | 479 kts | 7° |
| 2026-05-07 11:09 | 46.74852 | -73.71654 | 29644 ft | 478 kts | 6° |
| 2026-05-07 11:09 | 46.78133 | -73.70731 | 29965 ft | 478 kts | 6° |
| 2026-05-07 11:09 | 46.81408 | -73.69810 | 30294 ft | 478 kts | 6° |
| 2026-05-07 11:10 | 46.84644 | -73.68896 | 30563 ft | 478 kts | 6° |
| 2026-05-07 11:10 | 46.87947 | -73.67965 | 30802 ft | 479 kts | 6° |
| 2026-05-07 11:10 | 46.91205 | -73.67041 | 31104 ft | 476 kts | 6° |
| 2026-05-07 11:10 | 46.94473 | -73.66117 | 31420 ft | 475 kts | 6° |
| 2026-05-07 11:11 | 46.97702 | -73.65205 | 31699 ft | 475 kts | 6° |
| 2026-05-07 11:11 | 47.00984 | -73.64269 | 31954 ft | 476 kts | 6° |
| 2026-05-07 11:11 | 47.04214 | -73.63352 | 32191 ft | 476 kts | 6° |
| 2026-05-07 11:11 | 47.07474 | -73.62425 | 32450 ft | 475 kts | 6° |
| 2026-05-07 11:12 | 47.10719 | -73.61499 | 32729 ft | 475 kts | 6° |
| 2026-05-07 11:12 | 47.13946 | -73.60580 | 33004 ft | 473 kts | 6° |
| 2026-05-07 11:12 | 47.17165 | -73.59659 | 33263 ft | 473 kts | 6° |
| 2026-05-07 11:12 | 47.20406 | -73.58734 | 33567 ft | 472 kts | 6° |
| 2026-05-07 11:13 | 47.23610 | -73.57816 | 33862 ft | 471 kts | 6° |
| 2026-05-07 11:13 | 47.26844 | -73.56891 | 34187 ft | 470 kts | 6° |
| 2026-05-07 11:13 | 47.30020 | -73.55979 | 34493 ft | 469 kts | 6° |
| 2026-05-07 11:13 | 47.33209 | -73.55064 | 34784 ft | 468 kts | 6° |
| 2026-05-07 11:14 | 47.36408 | -73.54142 | 35070 ft | 468 kts | 6° |
| 2026-05-07 11:14 | 47.39621 | -73.53217 | 35343 ft | 468 kts | 6° |
| 2026-05-07 11:14 | 47.42810 | -73.52299 | 35616 ft | 467 kts | 6° |
| 2026-05-07 11:14 | 47.45993 | -73.51379 | 35889 ft | 467 kts | 6° |
| 2026-05-07 11:15 | 47.49151 | -73.50466 | 36166 ft | 467 kts | 6° |
| 2026-05-07 11:15 | 47.52361 | -73.49538 | 36403 ft | 468 kts | 6° |
| 2026-05-07 11:15 | 47.55555 | -73.48610 | 36687 ft | 466 kts | 6° |
| 2026-05-07 11:15 | 47.58739 | -73.47685 | 36943 ft | 466 kts | 6° |
| 2026-05-07 11:16 | 47.61876 | -73.46777 | 37182 ft | 466 kts | 6° |
| 2026-05-07 11:16 | 47.65089 | -73.45840 | 37431 ft | 466 kts | 6° |
| 2026-05-07 11:16 | 47.68253 | -73.44920 | 37703 ft | 466 kts | 6° |
| 2026-05-07 11:16 | 47.71434 | -73.43991 | 37954 ft | 467 kts | 6° |
| 2026-05-07 11:17 | 47.74581 | -73.43074 | 38218 ft | 467 kts | 6° |
| 2026-05-07 11:17 | 47.77767 | -73.42140 | 38535 ft | 466 kts | 6° |
| 2026-05-07 11:17 | 47.80966 | -73.41206 | 38733 ft | 468 kts | 6° |
| 2026-05-07 11:17 | 47.84180 | -73.40265 | 38720 ft | 474 kts | 7° |
| 2026-05-07 11:18 | 47.90646 | -73.38366 | 38745 ft | 480 kts | 7° |
| 2026-05-07 11:18 | 47.97219 | -73.36430 | 38743 ft | 485 kts | 7° |
| 2026-05-07 11:19 | 48.03840 | -73.34476 | 38748 ft | 487 kts | 8° |
| 2026-05-07 11:19 | 48.10521 | -73.32499 | 38745 ft | 488 kts | 8° |
| 2026-05-07 11:20 | 48.17166 | -73.30525 | 38726 ft | 489 kts | 8° |
| 2026-05-07 11:20 | 48.23819 | -73.28546 | 38718 ft | 489 kts | 8° |
| 2026-05-07 11:21 | 48.30479 | -73.26558 | 38715 ft | 489 kts | 8° |
| 2026-05-07 11:21 | 48.37142 | -73.24567 | 38722 ft | 489 kts | 8° |
| 2026-05-07 11:22 | 48.43812 | -73.22566 | 38733 ft | 489 kts | 8° |
| 2026-05-07 11:22 | 48.50468 | -73.20567 | 38731 ft | 489 kts | 8° |
| 2026-05-07 11:23 | 48.57090 | -73.18568 | 38727 ft | 489 kts | 8° |
| 2026-05-07 11:23 | 48.63772 | -73.16547 | 38735 ft | 489 kts | 8° |
| 2026-05-07 11:24 | 48.70432 | -73.14528 | 38733 ft | 489 kts | 8° |
| 2026-05-07 11:24 | 48.77065 | -73.12512 | 38725 ft | 489 kts | 8° |
| 2026-05-07 11:25 | 48.83740 | -73.10478 | 38736 ft | 489 kts | 8° |
| 2026-05-07 11:25 | 48.90366 | -73.08456 | 38736 ft | 489 kts | 8° |
| 2026-05-07 11:26 | 48.97031 | -73.06411 | 38749 ft | 490 kts | 8° |
| 2026-05-07 11:26 | 49.03696 | -73.04363 | 38753 ft | 490 kts | 9° |
| 2026-05-07 11:27 | 49.10363 | -73.02308 | 38752 ft | 490 kts | 8° |
| 2026-05-07 11:27 | 49.17008 | -73.00136 | 38728 ft | 492 kts | 16° |
| 2026-05-07 11:28 | 49.20050 | -72.97777 | 38730 ft | 492 kts | 33° |
| 2026-05-07 11:28 | 49.22863 | -72.94838 | 38807 ft | 492 kts | 33° |
| 2026-05-07 11:28 | 49.28498 | -72.88908 | 38766 ft | 494 kts | 33° |
| 2026-05-07 11:29 | 49.34144 | -72.82944 | 38762 ft | 495 kts | 33° |
| 2026-05-07 11:29 | 49.39803 | -72.76948 | 38759 ft | 495 kts | 33° |
| 2026-05-07 11:30 | 49.45481 | -72.70916 | 38755 ft | 496 kts | 33° |
| 2026-05-07 11:30 | 49.51134 | -72.64892 | 38760 ft | 496 kts | 33° |
| 2026-05-07 11:31 | 49.56808 | -72.58830 | 38759 ft | 496 kts | 33° |
| 2026-05-07 11:31 | 49.62448 | -72.52786 | 38760 ft | 497 kts | 33° |
| 2026-05-07 11:32 | 49.70925 | -72.43669 | 38754 ft | 497 kts | 34° |
| 2026-05-07 11:33 | 49.76611 | -72.37528 | 38745 ft | 498 kts | 34° |
| 2026-05-07 11:33 | 49.82293 | -72.31380 | 38742 ft | 498 kts | 34° |
| 2026-05-07 11:34 | 49.87940 | -72.25247 | 38731 ft | 498 kts | 34° |
| 2026-05-07 11:34 | 49.93595 | -72.19090 | 38728 ft | 497 kts | 34° |
| 2026-05-07 11:35 | 49.99268 | -72.12896 | 38730 ft | 497 kts | 35° |
| 2026-05-07 11:35 | 50.04907 | -72.06716 | 38730 ft | 498 kts | 35° |
| 2026-05-07 11:36 | 50.10564 | -72.00504 | 38735 ft | 498 kts | 35° |
| 2026-05-07 11:36 | 50.16185 | -71.94310 | 38712 ft | 499 kts | 35° |
| 2026-05-07 11:37 | 50.21837 | -71.88063 | 38712 ft | 498 kts | 35° |
| 2026-05-07 11:37 | 50.27505 | -71.81782 | 38701 ft | 499 kts | 35° |
| 2026-05-07 11:38 | 50.33125 | -71.75535 | 38706 ft | 499 kts | 35° |
| 2026-05-07 11:38 | 50.38773 | -71.69238 | 38712 ft | 498 kts | 35° |
| 2026-05-07 11:39 | 50.44374 | -71.62974 | 38713 ft | 498 kts | 35° |
| 2026-05-07 11:39 | 50.49989 | -71.56677 | 38718 ft | 498 kts | 35° |
| 2026-05-07 11:40 | 50.55639 | -71.50319 | 38723 ft | 498 kts | 35° |
| 2026-05-07 11:40 | 50.61254 | -71.43987 | 38738 ft | 498 kts | 35° |
| 2026-05-07 11:41 | 50.66884 | -71.37614 | 38740 ft | 498 kts | 35° |
| 2026-05-07 11:41 | 50.72504 | -71.31235 | 38734 ft | 499 kts | 36° |
| 2026-05-07 11:42 | 50.78101 | -71.24862 | 38739 ft | 499 kts | 36° |
| 2026-05-07 11:42 | 50.83727 | -71.18438 | 38734 ft | 499 kts | 36° |
| 2026-05-07 11:43 | 50.89321 | -71.12032 | 38727 ft | 500 kts | 36° |
| 2026-05-07 11:43 | 50.94931 | -71.05585 | 38716 ft | 500 kts | 36° |
| 2026-05-07 11:44 | 51.00549 | -70.99107 | 38721 ft | 501 kts | 36° |
| 2026-05-07 11:44 | 51.06165 | -70.92614 | 38719 ft | 501 kts | 36° |
| 2026-05-07 11:45 | 51.11793 | -70.86089 | 38719 ft | 500 kts | 36° |
| 2026-05-07 11:45 | 51.17418 | -70.79546 | 38711 ft | 499 kts | 36° |
| 2026-05-07 11:46 | 51.23010 | -70.73025 | 38710 ft | 499 kts | 36° |
| 2026-05-07 11:46 | 51.28595 | -70.66486 | 38709 ft | 499 kts | 36° |
| 2026-05-07 11:47 | 51.34190 | -70.59919 | 38707 ft | 499 kts | 36° |
| 2026-05-07 11:47 | 51.39749 | -70.53373 | 38701 ft | 499 kts | 36° |
| 2026-05-07 11:48 | 51.45318 | -70.46794 | 38705 ft | 499 kts | 36° |
| 2026-05-07 11:48 | 51.50910 | -70.40170 | 38708 ft | 500 kts | 36° |
| 2026-05-07 11:49 | 51.56475 | -70.33553 | 38709 ft | 500 kts | 37° |
| 2026-05-07 11:49 | 51.62042 | -70.26918 | 38712 ft | 500 kts | 37° |
| 2026-05-07 11:50 | 51.67592 | -70.20277 | 38721 ft | 500 kts | 37° |
| 2026-05-07 11:50 | 51.73165 | -70.13590 | 38726 ft | 500 kts | 37° |
| 2026-05-07 11:51 | 51.78743 | -70.06877 | 38731 ft | 501 kts | 37° |
| 2026-05-07 11:51 | 51.84283 | -70.00191 | 38730 ft | 501 kts | 37° |
| 2026-05-07 11:52 | 51.89869 | -69.93425 | 38716 ft | 501 kts | 37° |
| 2026-05-07 11:52 | 51.95406 | -69.86700 | 38709 ft | 501 kts | 37° |
| 2026-05-07 11:53 | 52.00954 | -69.79933 | 38709 ft | 501 kts | 37° |
| 2026-05-07 11:53 | 52.06504 | -69.73148 | 38709 ft | 501 kts | 37° |
| 2026-05-07 11:54 | 52.12048 | -69.66349 | 38700 ft | 501 kts | 37° |
| 2026-05-07 11:54 | 52.17586 | -69.59531 | 38702 ft | 501 kts | 37° |
| 2026-05-07 11:55 | 52.23107 | -69.52715 | 38701 ft | 501 kts | 37° |
| 2026-05-07 11:55 | 52.28646 | -69.45856 | 38701 ft | 501 kts | 37° |
| 2026-05-07 11:56 | 52.34160 | -69.39005 | 38703 ft | 501 kts | 37° |
| 2026-05-07 11:56 | 52.39698 | -69.32104 | 38699 ft | 501 kts | 38° |
| 2026-05-07 11:57 | 52.45221 | -69.25194 | 38701 ft | 501 kts | 38° |
| 2026-05-07 11:57 | 52.50760 | -69.18246 | 38697 ft | 501 kts | 38° |
| 2026-05-07 11:58 | 52.56254 | -69.11331 | 38695 ft | 501 kts | 38° |
| 2026-05-07 11:58 | 52.61763 | -69.04372 | 38696 ft | 501 kts | 38° |
| 2026-05-07 11:59 | 52.67240 | -68.97433 | 38693 ft | 501 kts | 38° |
| 2026-05-07 11:59 | 52.72751 | -68.90431 | 38692 ft | 501 kts | 38° |
| 2026-05-07 12:00 | 52.78263 | -68.83401 | 38691 ft | 501 kts | 38° |
| 2026-05-07 12:00 | 52.83744 | -68.76388 | 38693 ft | 501 kts | 38° |
| 2026-05-07 12:01 | 52.89216 | -68.69366 | 38691 ft | 501 kts | 38° |
| 2026-05-07 12:01 | 52.94730 | -68.62263 | 38694 ft | 501 kts | 38° |
| 2026-05-07 12:02 | 53.00202 | -68.55193 | 38695 ft | 501 kts | 38° |
| 2026-05-07 12:02 | 53.05666 | -68.48109 | 38711 ft | 501 kts | 38° |
| 2026-05-07 12:03 | 53.11134 | -68.40997 | 38718 ft | 501 kts | 38° |
| 2026-05-07 12:03 | 53.16613 | -68.33849 | 38710 ft | 501 kts | 39° |
| 2026-05-07 12:04 | 53.22111 | -68.26652 | 38711 ft | 501 kts | 39° |
| 2026-05-07 12:04 | 53.27557 | -68.19495 | 38710 ft | 501 kts | 39° |
| 2026-05-07 12:05 | 53.33008 | -68.12310 | 38709 ft | 501 kts | 39° |
| 2026-05-07 12:05 | 53.38463 | -68.05096 | 38711 ft | 501 kts | 39° |
| 2026-05-07 12:06 | 53.43941 | -67.97826 | 38707 ft | 501 kts | 39° |
| 2026-05-07 12:06 | 53.49381 | -67.90584 | 38703 ft | 502 kts | 39° |
| 2026-05-07 12:07 | 53.54819 | -67.83317 | 38694 ft | 501 kts | 39° |
| 2026-05-07 12:07 | 53.60247 | -67.76042 | 38698 ft | 501 kts | 39° |
| 2026-05-07 12:08 | 53.65633 | -67.68795 | 38702 ft | 500 kts | 39° |
| 2026-05-07 12:08 | 53.71071 | -67.61458 | 38700 ft | 500 kts | 39° |
| 2026-05-07 12:09 | 53.76469 | -67.54142 | 38708 ft | 500 kts | 39° |
| 2026-05-07 12:09 | 53.81867 | -67.46812 | 38705 ft | 499 kts | 39° |
| 2026-05-07 12:10 | 53.87249 | -67.39475 | 38701 ft | 500 kts | 39° |
| 2026-05-07 12:10 | 53.92654 | -67.32077 | 38710 ft | 499 kts | 40° |
| 2026-05-07 12:11 | 53.98033 | -67.24692 | 38712 ft | 500 kts | 40° |
| 2026-05-07 12:11 | 54.03396 | -67.17306 | 38713 ft | 499 kts | 40° |
| 2026-05-07 12:12 | 54.08763 | -67.09890 | 38711 ft | 499 kts | 40° |
| 2026-05-07 12:12 | 54.14137 | -67.02434 | 38706 ft | 499 kts | 40° |
| 2026-05-07 12:13 | 54.19489 | -66.94985 | 38708 ft | 499 kts | 40° |
| 2026-05-07 12:13 | 54.24852 | -66.87492 | 38696 ft | 499 kts | 40° |
| 2026-05-07 12:14 | 54.30228 | -66.79958 | 38691 ft | 499 kts | 40° |
| 2026-05-07 12:14 | 54.35537 | -66.72496 | 38692 ft | 499 kts | 40° |
| 2026-05-07 12:15 | 54.40887 | -66.64941 | 38699 ft | 499 kts | 40° |
| 2026-05-07 12:15 | 54.46231 | -66.57375 | 38689 ft | 499 kts | 40° |
| 2026-05-07 12:16 | 54.51531 | -66.49844 | 38676 ft | 499 kts | 40° |
| 2026-05-07 12:16 | 54.56867 | -66.42233 | 38689 ft | 498 kts | 40° |
| 2026-05-07 12:17 | 54.62171 | -66.34642 | 38694 ft | 498 kts | 41° |
| 2026-05-07 12:17 | 54.67491 | -66.27002 | 38701 ft | 498 kts | 41° |
| 2026-05-07 12:18 | 54.72780 | -66.19381 | 38705 ft | 498 kts | 41° |
| 2026-05-07 12:18 | 54.78078 | -66.11721 | 38706 ft | 498 kts | 41° |
| 2026-05-07 12:19 | 54.83372 | -66.04038 | 38705 ft | 499 kts | 41° |
| 2026-05-07 12:19 | 54.88650 | -65.96344 | 38716 ft | 498 kts | 41° |
| 2026-05-07 12:20 | 54.93957 | -65.88590 | 38697 ft | 498 kts | 41° |
| 2026-05-07 12:20 | 54.99202 | -65.80892 | 38717 ft | 498 kts | 41° |
| 2026-05-07 12:21 | 55.04474 | -65.73132 | 38727 ft | 498 kts | 41° |
| 2026-05-07 12:21 | 55.09764 | -65.65318 | 38746 ft | 498 kts | 41° |
| 2026-05-07 12:22 | 55.14998 | -65.57561 | 38738 ft | 498 kts | 41° |
| 2026-05-07 12:22 | 55.20265 | -65.49719 | 38743 ft | 498 kts | 41° |
| 2026-05-07 12:23 | 55.25506 | -65.41894 | 38750 ft | 497 kts | 41° |
| 2026-05-07 12:23 | 55.30753 | -65.34029 | 38741 ft | 498 kts | 42° |
| 2026-05-07 12:24 | 55.35990 | -65.26154 | 38731 ft | 498 kts | 42° |
| 2026-05-07 12:24 | 55.41245 | -65.18219 | 38744 ft | 498 kts | 42° |
| 2026-05-07 12:25 | 55.46472 | -65.10300 | 38731 ft | 497 kts | 42° |
| 2026-05-07 12:25 | 55.51719 | -65.02322 | 38729 ft | 498 kts | 42° |
| 2026-05-07 12:26 | 55.56753 | -64.94046 | 38711 ft | 495 kts | 51° |
| 2026-05-07 12:26 | 55.61157 | -64.84742 | 38739 ft | 496 kts | 51° |
| 2026-05-07 12:27 | 55.65566 | -64.75388 | 38727 ft | 497 kts | 51° |
| 2026-05-07 12:27 | 55.69974 | -64.66004 | 38746 ft | 497 kts | 52° |
| 2026-05-07 12:28 | 55.74348 | -64.56654 | 38754 ft | 496 kts | 52° |
| 2026-05-07 12:28 | 55.78742 | -64.47221 | 38758 ft | 496 kts | 52° |
| 2026-05-07 12:29 | 55.83095 | -64.37845 | 38754 ft | 497 kts | 52° |
| 2026-05-07 12:29 | 55.87485 | -64.28353 | 38750 ft | 497 kts | 53° |
| 2026-05-07 12:30 | 55.91855 | -64.18861 | 38751 ft | 497 kts | 53° |
| 2026-05-07 12:30 | 55.96209 | -64.09368 | 38760 ft | 497 kts | 53° |
| 2026-05-07 12:31 | 56.00564 | -63.99840 | 38760 ft | 497 kts | 52° |
| 2026-05-07 12:31 | 56.04911 | -63.90294 | 38744 ft | 497 kts | 53° |
| 2026-05-07 12:32 | 56.09255 | -63.80706 | 38768 ft | 497 kts | 52° |
| 2026-05-07 12:32 | 56.13596 | -63.71098 | 38757 ft | 496 kts | 53° |
| 2026-05-07 12:33 | 56.20047 | -63.56738 | 38772 ft | 496 kts | 52° |
| 2026-05-07 12:33 | 56.24359 | -63.47096 | 38785 ft | 496 kts | 53° |
| 2026-05-07 12:34 | 56.28626 | -63.37516 | 38795 ft | 496 kts | 53° |
| 2026-05-07 12:34 | 56.32933 | -63.27802 | 38791 ft | 496 kts | 53° |
| 2026-05-07 12:35 | 56.37236 | -63.18063 | 38783 ft | 496 kts | 53° |
| 2026-05-07 12:35 | 56.41486 | -63.08409 | 38785 ft | 496 kts | 53° |
| 2026-05-07 12:36 | 56.45750 | -62.98676 | 38785 ft | 496 kts | 53° |
| 2026-05-07 12:36 | 56.50021 | -62.88891 | 38799 ft | 496 kts | 53° |
| 2026-05-07 12:37 | 56.54256 | -62.79146 | 38790 ft | 496 kts | 53° |
| 2026-05-07 12:37 | 56.58507 | -62.69334 | 38796 ft | 497 kts | 53° |
| 2026-05-07 12:38 | 56.62744 | -62.59507 | 38794 ft | 497 kts | 53° |
| 2026-05-07 12:38 | 56.66994 | -62.49609 | 38804 ft | 497 kts | 53° |
| 2026-05-07 12:39 | 56.71222 | -62.39726 | 38805 ft | 497 kts | 54° |
| 2026-05-07 12:39 | 56.75425 | -62.29854 | 38785 ft | 498 kts | 54° |
| 2026-05-07 12:40 | 56.79652 | -62.19895 | 38794 ft | 498 kts | 54° |
| 2026-05-07 12:40 | 56.83883 | -62.09874 | 38780 ft | 498 kts | 55° |
| 2026-05-07 12:41 | 56.88090 | -61.99869 | 38792 ft | 498 kts | 54° |
| 2026-05-07 12:41 | 56.92292 | -61.89848 | 38778 ft | 499 kts | 55° |
| 2026-05-07 12:42 | 56.96476 | -61.79817 | 38756 ft | 499 kts | 55° |
| 2026-05-07 12:42 | 57.00662 | -61.69746 | 38737 ft | 500 kts | 55° |
| 2026-05-07 12:43 | 57.04845 | -61.59627 | 38795 ft | 499 kts | 55° |
| 2026-05-07 12:43 | 57.09013 | -61.49511 | 38813 ft | 499 kts | 55° |
| 2026-05-07 12:44 | 57.13186 | -61.39345 | 38810 ft | 499 kts | 55° |
| 2026-05-07 12:44 | 57.17355 | -61.29137 | 38804 ft | 499 kts | 56° |
| 2026-05-07 12:45 | 57.21500 | -61.18946 | 38808 ft | 499 kts | 56° |
| 2026-05-07 12:45 | 57.25645 | -61.08718 | 38811 ft | 499 kts | 56° |
| 2026-05-07 12:46 | 57.29757 | -60.98521 | 38826 ft | 499 kts | 56° |
| 2026-05-07 12:46 | 57.33881 | -60.88256 | 38837 ft | 499 kts | 56° |
| 2026-05-07 12:47 | 57.38013 | -60.77923 | 38834 ft | 501 kts | 56° |
| 2026-05-07 12:47 | 57.42129 | -60.67587 | 38845 ft | 501 kts | 56° |
| 2026-05-07 12:48 | 57.46236 | -60.57232 | 38845 ft | 501 kts | 56° |
| 2026-05-07 12:48 | 57.50346 | -60.46823 | 38839 ft | 501 kts | 56° |
| 2026-05-07 12:49 | 57.54433 | -60.36418 | 38830 ft | 501 kts | 56° |
| 2026-05-07 12:49 | 57.58537 | -60.25940 | 38844 ft | 501 kts | 56° |
| 2026-05-07 12:50 | 57.62619 | -60.15461 | 38844 ft | 501 kts | 57° |
| 2026-05-07 12:50 | 57.66689 | -60.04974 | 38846 ft | 502 kts | 57° |
| 2026-05-07 12:51 | 57.70746 | -59.94466 | 38840 ft | 502 kts | 57° |
| 2026-05-07 12:51 | 57.74821 | -59.83870 | 38840 ft | 502 kts | 57° |
| 2026-05-07 12:52 | 57.78881 | -59.73263 | 38846 ft | 503 kts | 56° |
| 2026-05-07 12:52 | 57.82922 | -59.62663 | 38849 ft | 503 kts | 56° |
| 2026-05-07 12:53 | 57.86984 | -59.51968 | 38862 ft | 504 kts | 57° |
| 2026-05-07 12:53 | 57.91020 | -59.41282 | 38857 ft | 504 kts | 57° |
| 2026-05-07 12:54 | 57.95040 | -59.30597 | 38860 ft | 505 kts | 57° |
| 2026-05-07 12:54 | 57.99077 | -59.19819 | 38866 ft | 504 kts | 57° |
| 2026-05-07 12:55 | 58.03072 | -59.09098 | 38859 ft | 504 kts | 57° |
| 2026-05-07 12:55 | 58.07084 | -58.98283 | 38867 ft | 505 kts | 57° |
| 2026-05-07 12:56 | 58.11081 | -58.87465 | 38856 ft | 505 kts | 57° |
| 2026-05-07 12:56 | 58.15084 | -58.76575 | 38865 ft | 504 kts | 57° |
| 2026-05-07 12:57 | 58.19044 | -58.65761 | 38870 ft | 504 kts | 57° |
| 2026-05-07 12:57 | 58.23019 | -58.54852 | 38867 ft | 504 kts | 57° |
| 2026-05-07 12:58 | 58.26965 | -58.43975 | 38869 ft | 505 kts | 57° |
| 2026-05-07 12:58 | 58.30938 | -58.32972 | 38891 ft | 505 kts | 58° |
| 2026-05-07 12:59 | 58.34858 | -58.22062 | 38881 ft | 505 kts | 58° |
| 2026-05-07 12:59 | 58.38788 | -58.11074 | 38889 ft | 504 kts | 58° |
| 2026-05-07 13:00 | 58.42738 | -57.99983 | 38894 ft | 504 kts | 58° |
| 2026-05-07 13:00 | 58.46652 | -57.88940 | 38899 ft | 505 kts | 58° |
| 2026-05-07 13:01 | 58.50563 | -57.77857 | 38894 ft | 505 kts | 58° |
| 2026-05-07 13:01 | 58.54445 | -57.66800 | 38904 ft | 505 kts | 58° |
| 2026-05-07 13:02 | 58.58336 | -57.55669 | 38906 ft | 505 kts | 58° |
| 2026-05-07 13:02 | 58.62232 | -57.44469 | 38926 ft | 505 kts | 58° |
| 2026-05-07 13:03 | 58.66083 | -57.33344 | 38907 ft | 505 kts | 59° |
| 2026-05-07 13:03 | 58.69952 | -57.22123 | 38929 ft | 505 kts | 59° |
| 2026-05-07 13:04 | 58.73795 | -57.10921 | 38938 ft | 504 kts | 59° |
| 2026-05-07 13:04 | 58.77632 | -56.99678 | 38933 ft | 504 kts | 59° |
| 2026-05-07 13:05 | 58.81452 | -56.88430 | 38926 ft | 504 kts | 59° |
| 2026-05-07 13:05 | 58.85280 | -56.77106 | 38930 ft | 505 kts | 59° |
| 2026-05-07 13:06 | 58.89080 | -56.65811 | 38927 ft | 505 kts | 59° |
| 2026-05-07 13:06 | 58.92886 | -56.54440 | 38927 ft | 506 kts | 59° |
| 2026-05-07 13:07 | 58.96699 | -56.43016 | 38951 ft | 506 kts | 58° |
| 2026-05-07 13:07 | 59.00481 | -56.31605 | 38936 ft | 506 kts | 59° |
| 2026-05-07 13:08 | 59.04247 | -56.20203 | 38935 ft | 506 kts | 60° |
| 2026-05-07 13:08 | 59.08030 | -56.08682 | 38937 ft | 506 kts | 60° |
| 2026-05-07 13:09 | 59.11788 | -55.97184 | 38917 ft | 506 kts | 60° |
| 2026-05-07 13:09 | 59.15521 | -55.85700 | 38914 ft | 505 kts | 60° |
| 2026-05-07 13:10 | 59.19248 | -55.74181 | 38926 ft | 504 kts | 60° |
| 2026-05-07 13:10 | 59.22971 | -55.62621 | 38937 ft | 504 kts | 59° |
| 2026-05-07 13:11 | 59.26652 | -55.51138 | 38964 ft | 503 kts | 60° |
| 2026-05-07 13:11 | 59.30353 | -55.39531 | 38949 ft | 504 kts | 59° |
| 2026-05-07 13:12 | 59.34043 | -55.27911 | 38930 ft | 504 kts | 60° |
| 2026-05-07 13:12 | 59.37701 | -55.16320 | 38957 ft | 504 kts | 60° |
| 2026-05-07 13:13 | 59.41367 | -55.04658 | 38946 ft | 504 kts | 60° |
| 2026-05-07 13:13 | 59.45008 | -54.93006 | 38954 ft | 504 kts | 60° |
| 2026-05-07 13:14 | 59.48655 | -54.81274 | 38946 ft | 504 kts | 60° |
| 2026-05-07 13:14 | 59.52272 | -54.69597 | 38951 ft | 504 kts | 60° |
| 2026-05-07 13:15 | 59.55909 | -54.57777 | 38969 ft | 504 kts | 60° |
| 2026-05-07 13:15 | 59.59508 | -54.46032 | 38955 ft | 504 kts | 60° |
| 2026-05-07 13:16 | 59.63102 | -54.34242 | 38981 ft | 504 kts | 62° |
| 2026-05-07 13:16 | 59.66686 | -54.22426 | 38973 ft | 504 kts | 61° |
| 2026-05-07 13:17 | 59.70279 | -54.10519 | 38980 ft | 504 kts | 61° |
| 2026-05-07 13:17 | 59.73831 | -53.98686 | 38981 ft | 503 kts | 62° |
| 2026-05-07 13:18 | 59.77386 | -53.86782 | 38987 ft | 503 kts | 62° |
| 2026-05-07 13:18 | 59.80947 | -53.74795 | 39001 ft | 504 kts | 61° |
| 2026-05-07 13:19 | 59.84481 | -53.62838 | 39002 ft | 504 kts | 61° |
| 2026-05-07 13:19 | 59.87999 | -53.50864 | 39003 ft | 504 kts | 61° |
| 2026-05-07 13:20 | 59.91512 | -53.38856 | 39005 ft | 505 kts | 61° |
| 2026-05-07 13:20 | 59.95026 | -53.26789 | 39012 ft | 505 kts | 62° |
| 2026-05-07 13:21 | 59.98515 | -53.14729 | 39017 ft | 505 kts | 62° |
| 2026-05-07 13:21 | 60.01992 | -53.02652 | 39029 ft | 505 kts | 62° |
| 2026-05-07 13:22 | 60.05462 | -52.90536 | 39019 ft | 504 kts | 62° |
| 2026-05-07 13:22 | 60.08926 | -52.78379 | 39006 ft | 505 kts | 62° |
| 2026-05-07 13:23 | 60.12382 | -52.66178 | 39004 ft | 505 kts | 62° |
| 2026-05-07 13:23 | 60.15806 | -52.54029 | 38997 ft | 504 kts | 62° |
| 2026-05-07 13:24 | 60.19222 | -52.41845 | 39024 ft | 503 kts | 62° |
| 2026-05-07 13:24 | 60.22649 | -52.29559 | 39024 ft | 503 kts | 63° |
| 2026-05-07 13:25 | 60.26022 | -52.17394 | 39017 ft | 503 kts | 63° |
| 2026-05-07 13:25 | 60.29402 | -52.05142 | 39033 ft | 503 kts | 63° |
| 2026-05-07 13:26 | 60.32784 | -51.92821 | 39034 ft | 503 kts | 63° |
| 2026-05-07 13:26 | 60.36142 | -51.80515 | 39043 ft | 503 kts | 63° |
| 2026-05-07 13:27 | 60.39498 | -51.68148 | 39054 ft | 503 kts | 63° |
| 2026-05-07 13:27 | 60.42818 | -51.55850 | 39059 ft | 502 kts | 63° |
| 2026-05-07 13:28 | 60.46149 | -51.43436 | 39055 ft | 502 kts | 63° |
| 2026-05-07 13:28 | 60.49468 | -51.31014 | 39053 ft | 503 kts | 64° |
| 2026-05-07 13:29 | 60.52750 | -51.18639 | 39075 ft | 502 kts | 64° |
| 2026-05-07 13:29 | 60.56050 | -51.06147 | 39089 ft | 502 kts | 64° |
| 2026-05-07 13:30 | 60.59308 | -50.93740 | 39082 ft | 502 kts | 64° |
| 2026-05-07 13:30 | 60.62569 | -50.81250 | 39091 ft | 502 kts | 64° |
| 2026-05-07 13:31 | 60.65828 | -50.68702 | 39097 ft | 502 kts | 64° |
| 2026-05-07 13:31 | 60.69060 | -50.56182 | 39101 ft | 502 kts | 64° |
| 2026-05-07 13:32 | 60.72283 | -50.43630 | 39121 ft | 502 kts | 64° |
| 2026-05-07 13:32 | 60.75504 | -50.31006 | 39122 ft | 502 kts | 65° |
| 2026-05-07 13:33 | 60.78702 | -50.18408 | 39130 ft | 502 kts | 65° |
| 2026-05-07 13:33 | 60.81886 | -50.05796 | 39137 ft | 502 kts | 65° |
| 2026-05-07 13:34 | 60.86645 | -49.86808 | 39145 ft | 501 kts | 65° |
| 2026-05-07 13:35 | 60.89811 | -49.74079 | 39145 ft | 501 kts | 64° |
| 2026-05-07 13:35 | 60.92935 | -49.61457 | 39160 ft | 500 kts | 64° |
| 2026-05-07 13:36 | 60.96058 | -49.48763 | 39163 ft | 499 kts | 65° |
| 2026-05-07 13:36 | 60.99168 | -49.36035 | 39169 ft | 499 kts | 65° |
| 2026-05-07 13:37 | 61.02254 | -49.23349 | 39181 ft | 499 kts | 65° |
| 2026-05-07 13:37 | 61.05345 | -49.10554 | 39173 ft | 499 kts | 65° |
| 2026-05-07 13:38 | 61.08411 | -48.97796 | 39189 ft | 498 kts | 65° |
| 2026-05-07 13:38 | 61.11465 | -48.85009 | 39169 ft | 497 kts | 65° |
| 2026-05-07 13:39 | 61.14506 | -48.72207 | 39182 ft | 497 kts | 65° |
| 2026-05-07 13:39 | 61.17508 | -48.59482 | 39193 ft | 496 kts | 65° |
| 2026-05-07 13:40 | 61.20528 | -48.46614 | 39192 ft | 496 kts | 65° |
| 2026-05-07 13:40 | 61.23518 | -48.33804 | 39189 ft | 496 kts | 66° |
| 2026-05-07 13:41 | 61.26512 | -48.20901 | 39193 ft | 496 kts | 66° |
| 2026-05-07 13:41 | 61.29481 | -48.08016 | 39192 ft | 496 kts | 66° |
| 2026-05-07 13:42 | 61.32433 | -47.95129 | 39184 ft | 496 kts | 65° |
| 2026-05-07 13:42 | 61.35364 | -47.82268 | 39133 ft | 496 kts | 66° |
| 2026-05-07 13:43 | 61.38299 | -47.69297 | 39084 ft | 496 kts | 65° |
| 2026-05-07 13:43 | 61.41214 | -47.56345 | 39100 ft | 495 kts | 65° |
| 2026-05-07 13:44 | 61.44123 | -47.43344 | 39079 ft | 494 kts | 65° |
| 2026-05-07 13:44 | 61.47007 | -47.30368 | 39070 ft | 494 kts | 66° |
| 2026-05-07 13:45 | 61.49863 | -47.17440 | 39105 ft | 493 kts | 66° |
| 2026-05-07 13:45 | 61.52713 | -47.04457 | 39089 ft | 492 kts | 66° |
| 2026-05-07 13:46 | 61.55537 | -46.91513 | 39087 ft | 491 kts | 66° |
| 2026-05-07 13:46 | 61.58363 | -46.78487 | 39090 ft | 490 kts | 66° |
| 2026-05-07 13:47 | 61.61157 | -46.65527 | 39097 ft | 490 kts | 66° |
| 2026-05-07 13:47 | 61.63941 | -46.52521 | 39081 ft | 490 kts | 66° |
| 2026-05-07 13:48 | 61.66710 | -46.39516 | 39071 ft | 489 kts | 66° |
| 2026-05-07 13:48 | 61.69474 | -46.26453 | 39058 ft | 490 kts | 67° |
| 2026-05-07 13:49 | 61.72229 | -46.13351 | 39056 ft | 489 kts | 67° |
| 2026-05-07 13:49 | 61.74943 | -46.00356 | 39051 ft | 488 kts | 67° |
| 2026-05-07 13:50 | 61.77648 | -45.87325 | 39062 ft | 487 kts | 67° |
| 2026-05-07 13:50 | 61.80338 | -45.74278 | 39044 ft | 486 kts | 67° |
| 2026-05-07 13:51 | 61.83024 | -45.61177 | 39052 ft | 486 kts | 66° |
| 2026-05-07 13:51 | 61.85680 | -45.48130 | 39052 ft | 486 kts | 66° |
| 2026-05-07 13:52 | 61.88340 | -45.34985 | 39063 ft | 485 kts | 67° |
| 2026-05-07 13:52 | 61.90976 | -45.21882 | 39069 ft | 485 kts | 67° |
| 2026-05-07 13:53 | 61.93589 | -45.08799 | 39038 ft | 485 kts | 67° |
| 2026-05-07 13:53 | 61.96204 | -44.95620 | 39021 ft | 484 kts | 67° |
| 2026-05-07 13:54 | 61.98780 | -44.82548 | 39009 ft | 484 kts | 67° |
| 2026-05-07 13:54 | 62.01363 | -44.69370 | 39000 ft | 483 kts | 67° |
| 2026-05-07 13:55 | 62.03923 | -44.56219 | 39000 ft | 482 kts | 67° |
| 2026-05-07 13:55 | 62.06466 | -44.43056 | 39005 ft | 481 kts | 67° |
| 2026-05-07 13:56 | 62.08987 | -44.29929 | 39017 ft | 481 kts | 68° |
| 2026-05-07 13:56 | 62.11505 | -44.16745 | 39019 ft | 480 kts | 68° |
| 2026-05-07 13:57 | 62.14000 | -44.03577 | 39022 ft | 480 kts | 68° |
| 2026-05-07 13:57 | 62.16465 | -43.90475 | 39025 ft | 479 kts | 68° |